Terminal Aerodrome Forecast
Issued by NWS Topeka, KS

Home | Current Version | Previous Version | Text Only | Print | Product List | Glossary Off
Versions: 1 2 3 4 5 6 7 8 9 10 11 12 13 14 15 16 17

000
FTUS43 KTOP 210500
TAFTOP
TAF
KTOP 210520Z 2106/2206 15003KT P6SM VCSH BKN060
     FM211000 22003KT 4SM -SHRA BR BKN025
     FM211500 30008KT P6SM VCTS BKN035CB
     FM212100 33010KT P6SM SCT040=

USA.gov is the U.S. government's official web portal to all federal, state and local government web resources and services.